createdAt,value
2022-11-15T00:02:25.766Z,10.23
2022-11-15T00:05:12.115Z,10.73
2022-11-15T00:08:00.265Z,9.73
2022-11-15T00:10:56.315Z,8.43
2022-11-15T00:13:42.817Z,9.68
2022-11-15T00:16:29.364Z,8.45
2022-11-15T00:19:15.502Z,8.98
2022-11-15T00:22:01.765Z,9.75
2022-11-15T00:24:49.272Z,9.05
2022-11-15T00:27:35.995Z,11.90
2022-11-15T00:30:22.416Z,10.63
2022-11-15T00:33:09.155Z,10.13
2022-11-15T00:35:55.699Z,8.27
2022-11-15T00:38:42.501Z,10.98
2022-11-15T00:41:30.088Z,10.60
2022-11-15T00:44:16.641Z,9.82
2022-11-15T00:47:02.800Z,9.63
2022-11-15T00:49:49.396Z,6.97
2022-11-15T00:52:35.506Z,6.18
2022-11-15T00:55:22.006Z,5.93
2022-11-15T00:58:10.098Z,5.32
2022-11-15T01:00:56.911Z,10.77
2022-11-15T01:03:44.098Z,5.40
2022-11-15T01:06:30.415Z,5.40
2022-11-15T01:09:16.727Z,9.85
2022-11-15T01:12:02.821Z,6.65
2022-11-15T01:14:51.610Z,6.45
2022-11-15T01:17:38.163Z,5.68
2022-11-15T01:20:24.287Z,7.38
2022-11-15T01:23:10.772Z,5.80
2022-11-15T01:26:01.040Z,7.53
2022-11-15T01:28:47.429Z,5.40
2022-11-15T01:31:34.916Z,6.10
2022-11-15T01:34:21.306Z,7.70
2022-11-15T01:37:07.503Z,5.18
2022-11-15T01:39:53.742Z,6.68
2022-11-15T01:42:40.054Z,8.18
2022-11-15T01:45:26.220Z,5.22
2022-11-15T01:48:13.808Z,5.57
2022-11-15T01:51:03.113Z,5.05
2022-11-15T01:56:43.272Z,6.82
2022-11-15T01:59:30.220Z,6.43
2022-11-15T02:02:16.894Z,6.25
2022-11-15T02:05:05.841Z,5.95
2022-11-15T02:07:52.579Z,6.25
2022-11-15T02:10:38.868Z,8.40
2022-11-15T02:13:25.449Z,5.40
2022-11-15T02:16:29.702Z,6.05
2022-11-15T02:19:37.089Z,4.78
2022-11-15T02:22:37.658Z,8.15
2022-11-15T02:25:41.158Z,6.00
2022-11-15T02:28:43.650Z,5.80
2022-11-15T02:31:38.093Z,5.13
2022-11-15T02:34:35.946Z,4.47
2022-11-15T02:37:31.081Z,7.20
2022-11-15T02:40:29.689Z,5.95
2022-11-15T02:43:41.119Z,4.90
2022-11-15T02:46:53.882Z,5.82
2022-11-15T02:49:43.993Z,8.45
2022-11-15T02:52:30.424Z,6.03
2022-11-15T02:55:31.164Z,6.97
2022-11-15T02:58:33.776Z,4.80
2022-11-15T03:01:34.402Z,8.02
2022-11-15T03:04:35.593Z,5.68
2022-11-15T03:07:27.500Z,7.40
2022-11-15T03:10:20.842Z,6.68
2022-11-15T03:13:19.159Z,7.15
2022-11-15T03:16:10.969Z,8.27
2022-11-15T03:19:01.258Z,5.63
2022-11-15T03:21:50.141Z,5.55
2022-11-15T03:24:39.815Z,5.65
2022-11-15T03:27:31.057Z,9.13
2022-11-15T03:30:19.105Z,5.88
2022-11-15T03:33:06.965Z,4.60
2022-11-15T03:35:54.943Z,6.30
2022-11-15T03:38:44.233Z,5.20
2022-11-15T03:41:37.221Z,5.65
2022-11-15T03:44:33.997Z,4.95
2022-11-15T03:47:24.305Z,6.82
2022-11-15T03:50:13.710Z,3.50
2022-11-15T03:53:00.950Z,4.35
2022-11-15T03:55:48.595Z,3.75
2022-11-15T03:58:34.994Z,4.57
2022-11-15T04:01:21.282Z,3.25
2022-11-15T04:04:07.538Z,3.33
2022-11-15T04:06:53.857Z,2.92
2022-11-15T04:10:00.753Z,3.60
2022-11-15T04:12:48.700Z,2.58
2022-11-15T04:15:35.216Z,2.60
2022-11-15T04:18:21.755Z,2.35
2022-11-15T04:21:26.794Z,2.08
2022-11-15T04:24:16.191Z,6.03
2022-11-15T04:27:02.773Z,2.42
2022-11-15T04:29:50.595Z,2.75
2022-11-15T04:32:36.595Z,2.22
2022-11-15T04:35:22.763Z,4.20
2022-11-15T04:38:10.763Z,2.05
2022-11-15T04:40:57.203Z,2.28
2022-11-15T04:43:43.629Z,2.75
2022-11-15T04:46:31.559Z,3.97
2022-11-15T04:49:18.160Z,1.25
2022-11-15T04:52:04.949Z,3.58
2022-11-15T04:54:51.492Z,2.20
2022-11-15T04:57:38.021Z,1.10
2022-11-15T05:00:24.264Z,1.30
2022-11-15T05:03:29.920Z,1.63
2022-11-15T05:06:16.249Z,1.58
2022-11-15T05:09:02.402Z,1.35
2022-11-15T05:11:49.222Z,1.20
2022-11-15T05:14:35.449Z,1.38
2022-11-15T05:17:21.784Z,1.48
2022-11-15T05:20:11.303Z,1.83
2022-11-15T05:22:57.453Z,0.85
2022-11-15T05:25:43.958Z,1.73
2022-11-15T05:28:30.528Z,1.77
2022-11-15T05:31:17.841Z,1.98
2022-11-15T05:34:06.615Z,0.82
2022-11-15T05:36:54.443Z,2.28
2022-11-15T05:39:40.993Z,2.88
2022-11-15T05:42:29.148Z,0.90
2022-11-15T05:45:16.112Z,0.80
2022-11-15T05:48:06.071Z,0.93
2022-11-15T05:50:53.671Z,0.95
2022-11-15T05:53:41.658Z,1.33
2022-11-15T05:56:28.019Z,2.67
2022-11-15T05:59:14.629Z,0.93
2022-11-15T06:02:01.369Z,1.20
2022-11-15T06:04:47.644Z,0.68
2022-11-15T06:07:34.281Z,0.80
2022-11-15T06:10:21.777Z,1.58
2022-11-15T06:13:08.051Z,0.90
2022-11-15T06:15:57.355Z,3.03
2022-11-15T06:18:43.870Z,5.13
2022-11-15T06:21:30.568Z,1.95
2022-11-15T06:24:16.903Z,0.65
2022-11-15T06:27:04.919Z,1.98
2022-11-15T06:29:51.168Z,0.65
2022-11-15T06:32:37.415Z,0.90
2022-11-15T06:35:23.543Z,0.70
2022-11-15T06:38:11.545Z,0.95
2022-11-15T06:41:03.793Z,1.42
2022-11-15T06:43:51.488Z,1.08
2022-11-15T06:46:37.519Z,0.95
2022-11-15T06:49:23.743Z,0.50
2022-11-15T06:52:09.965Z,0.63
2022-11-15T06:54:56.055Z,0.75
2022-11-15T06:57:48.902Z,0.60
2022-11-15T07:00:36.623Z,2.85
2022-11-15T07:03:22.755Z,1.20
2022-11-15T07:06:09.699Z,0.80
2022-11-15T07:08:56.216Z,0.82
2022-11-15T07:11:42.516Z,0.70
2022-11-15T07:14:28.917Z,0.63
2022-11-15T07:17:16.657Z,2.92
2022-11-15T07:20:02.789Z,1.15
2022-11-15T07:22:48.880Z,2.63
2022-11-15T07:25:35.430Z,0.63
2022-11-15T07:28:21.735Z,1.27
2022-11-15T07:31:09.956Z,1.63
2022-11-15T07:33:57.480Z,3.57
2022-11-15T07:36:43.577Z,2.63
2022-11-15T07:39:29.769Z,1.95
2022-11-15T07:42:33.229Z,3.40
2022-11-15T07:45:19.655Z,1.10
2022-11-15T07:48:06.469Z,2.40
2022-11-15T07:50:53.937Z,2.53
2022-11-15T07:53:40.212Z,2.78
2022-11-15T07:56:26.386Z,1.70
2022-11-15T07:59:12.647Z,2.03
2022-11-15T08:01:58.827Z,3.47
2022-11-15T08:04:45.886Z,2.53
2022-11-15T08:07:33.936Z,8.25
2022-11-15T08:10:21.596Z,3.15
2022-11-15T08:13:10.697Z,2.22
2022-11-15T08:18:45.692Z,4.72
2022-11-15T08:21:32.461Z,5.93
2022-11-15T08:24:19.977Z,3.72
2022-11-15T08:27:06.266Z,3.45
2022-11-15T08:29:55.544Z,3.03
2022-11-15T08:32:46.363Z,2.28
2022-11-15T08:35:32.901Z,2.78
2022-11-15T08:38:19.430Z,1.90
2022-11-15T08:41:07.558Z,2.72
2022-11-15T08:43:53.925Z,4.53
2022-11-15T08:46:40.095Z,3.83
2022-11-15T08:49:26.584Z,3.30
2022-11-15T08:52:12.644Z,3.83
2022-11-15T08:54:58.953Z,2.00
2022-11-15T08:57:46.991Z,2.72
2022-11-15T09:00:34.081Z,2.67
2022-11-15T09:03:20.525Z,3.08
2022-11-15T09:06:06.923Z,3.28
2022-11-15T09:08:53.635Z,1.80
2022-11-15T09:11:40.143Z,1.17
2022-11-15T09:14:27.638Z,2.90
2022-11-15T09:17:13.831Z,2.55
2022-11-15T09:20:00.497Z,2.25
2022-11-15T09:22:46.699Z,4.57
2022-11-15T09:25:32.778Z,2.05
2022-11-15T09:28:19.234Z,0.80
2022-11-15T09:31:08.154Z,2.33
2022-11-15T09:33:54.404Z,3.90
2022-11-15T09:36:40.712Z,1.75
2022-11-15T09:39:26.974Z,1.05
2022-11-15T09:42:32.612Z,3.22
2022-11-15T09:45:24.077Z,1.58
2022-11-15T09:48:36.014Z,1.77
2022-11-15T09:51:28.421Z,2.53
2022-11-15T09:56:52.698Z,2.00
2022-11-15T09:59:40.443Z,3.08
2022-11-15T10:02:22.498Z,3.25
2022-11-15T10:04:52.795Z,2.60
2022-11-15T10:07:25.302Z,2.60
2022-11-15T10:09:58.039Z,2.25
2022-11-15T10:12:27.770Z,4.45
2022-11-15T10:15:03.485Z,2.17
2022-11-15T10:18:08.268Z,2.17
2022-11-15T10:20:46.834Z,2.47
2022-11-15T10:23:17.179Z,0.95
2022-11-15T10:25:45.582Z,1.52
2022-11-15T10:28:17.443Z,2.92
2022-11-15T10:30:47.851Z,3.45
2022-11-15T10:33:37.813Z,0.98
2022-11-15T10:36:21.650Z,1.73
2022-11-15T10:38:58.082Z,1.58
2022-11-15T10:41:35.481Z,1.73
2022-11-15T10:44:11.765Z,2.03
2022-11-15T10:46:48.363Z,5.63
2022-11-15T10:49:18.487Z,2.53
2022-11-15T10:51:50.734Z,1.10
2022-11-15T10:54:25.096Z,2.65
2022-11-15T10:56:55.377Z,4.53
2022-11-15T10:59:28.332Z,1.45
2022-11-15T11:01:56.431Z,2.58
2022-11-15T11:04:24.555Z,4.57
2022-11-15T11:06:55.512Z,3.45
2022-11-15T11:09:32.640Z,4.20
2022-11-15T11:12:01.952Z,2.35
2022-11-15T11:17:07.037Z,6.45
2022-11-15T11:19:50.293Z,2.85
2022-11-15T11:22:26.666Z,2.60
2022-11-15T11:25:03.756Z,7.55
2022-11-15T11:27:45.268Z,6.22
2022-11-15T11:30:19.569Z,4.95
2022-11-15T11:33:07.295Z,3.13
2022-11-15T11:35:43.404Z,1.52
2022-11-15T11:38:26.997Z,2.97
2022-11-15T11:41:06.110Z,1.85
2022-11-15T11:46:29.766Z,3.95
2022-11-15T11:49:03.569Z,4.32
2022-11-15T11:51:40.642Z,4.38
2022-11-15T11:54:15.480Z,2.10
2022-11-15T11:56:46.802Z,4.90
2022-11-15T11:59:21.489Z,3.03
2022-11-15T12:01:49.342Z,3.78
2022-11-15T12:04:22.255Z,3.95
2022-11-15T12:06:54.308Z,2.33
2022-11-15T12:09:32.059Z,1.90
2022-11-15T12:12:07.951Z,3.67
2022-11-15T12:14:44.661Z,5.72
2022-11-15T12:17:13.694Z,1.75
2022-11-15T12:19:43.649Z,3.40
2022-11-15T12:22:15.665Z,6.15
2022-11-15T12:24:52.282Z,4.80
2022-11-15T12:27:29.731Z,6.93
2022-11-15T12:30:02.025Z,1.98
2022-11-15T12:32:33.797Z,5.57
2022-11-15T12:35:03.594Z,2.17
2022-11-15T12:37:36.615Z,1.70
2022-11-15T12:40:25.096Z,4.22
2022-11-15T12:43:05.490Z,4.13
2022-11-15T12:45:35.302Z,3.83
2022-11-15T12:48:49.551Z,4.25
2022-11-15T12:51:17.485Z,1.48
2022-11-15T12:53:45.251Z,3.85
2022-11-15T12:56:26.570Z,4.15
2022-11-15T12:58:57.449Z,4.68
2022-11-15T13:02:02.500Z,3.42
2022-11-15T13:04:32.862Z,2.03
2022-11-15T13:07:03.985Z,1.75
2022-11-15T13:09:55.394Z,2.35
2022-11-15T13:12:54.137Z,3.05
2022-11-15T13:15:42.515Z,1.27
2022-11-15T13:18:31.288Z,1.60
2022-11-15T13:21:02.561Z,2.70
2022-11-15T13:23:31.164Z,2.05
2022-11-15T13:26:12.430Z,1.55
2022-11-15T13:28:46.587Z,1.35
2022-11-15T13:31:28.284Z,3.38
2022-11-15T13:34:00.046Z,6.05
2022-11-15T13:36:30.394Z,1.20
2022-11-15T13:39:00.697Z,1.45
2022-11-15T13:41:30.140Z,2.70
2022-11-15T13:44:00.738Z,1.52
2022-11-15T13:46:29.983Z,2.03
2022-11-15T13:51:34.846Z,1.73
2022-11-15T13:54:12.031Z,5.18
2022-11-15T13:56:42.755Z,4.68
2022-11-15T13:59:15.552Z,3.00
2022-11-15T14:01:44.445Z,2.50
2022-11-15T14:04:16.348Z,3.10
2022-11-15T14:07:04.158Z,1.38
2022-11-15T14:09:38.508Z,3.80
2022-11-15T14:12:37.118Z,3.10
2022-11-15T14:16:17.516Z,4.25
2022-11-15T14:18:49.564Z,5.20
2022-11-15T14:21:18.333Z,1.45
2022-11-15T14:24:00.689Z,1.50
2022-11-15T14:26:30.973Z,2.13
2022-11-15T14:28:59.021Z,2.17
2022-11-15T14:31:28.146Z,2.00
2022-11-15T14:33:55.897Z,4.03
2022-11-15T14:36:23.720Z,2.53
2022-11-15T14:38:51.571Z,2.10
2022-11-15T14:41:21.901Z,1.38
2022-11-15T14:43:50.332Z,1.67
2022-11-15T14:46:18.582Z,3.77
2022-11-15T14:48:47.850Z,2.90
2022-11-15T14:53:44.781Z,1.70
2022-11-15T14:56:12.706Z,2.67
2022-11-15T14:58:40.637Z,2.80
2022-11-15T15:01:14.926Z,3.78
2022-11-15T15:03:42.785Z,3.50
2022-11-15T15:06:17.897Z,2.75
2022-11-15T15:08:46.638Z,2.85
2022-11-15T15:11:16.860Z,5.78
2022-11-15T15:13:44.848Z,2.25
2022-11-15T15:16:12.594Z,4.57
2022-11-15T15:18:40.502Z,3.50
2022-11-15T15:21:24.401Z,5.70
2022-11-15T15:23:52.505Z,2.45
2022-11-15T15:26:20.302Z,3.17
2022-11-15T15:28:49.499Z,2.65
2022-11-15T15:31:17.289Z,2.83
2022-11-15T15:33:45.097Z,4.20
2022-11-15T15:36:13.943Z,2.22
2022-11-15T15:38:43.041Z,4.57
2022-11-15T15:41:12.620Z,3.70
2022-11-15T15:43:41.351Z,2.30
2022-11-15T15:46:11.812Z,3.72
2022-11-15T15:48:40.439Z,1.98
2022-11-15T15:51:15.468Z,2.17
2022-11-15T15:58:44.471Z,4.38
2022-11-15T16:01:12.251Z,3.45
2022-11-15T16:03:40.155Z,3.35
2022-11-15T16:06:37.266Z,2.85
2022-11-15T16:09:16.050Z,3.45
2022-11-15T16:11:45.637Z,3.13
2022-11-15T16:14:13.655Z,2.60
2022-11-15T16:16:41.600Z,3.88
2022-11-15T16:19:12.418Z,2.33
2022-11-15T16:21:40.199Z,2.63
2022-11-15T16:24:09.315Z,2.08
2022-11-15T16:26:38.047Z,4.57
2022-11-15T16:29:07.811Z,1.85
2022-11-15T16:31:35.616Z,4.78
2022-11-15T16:34:03.412Z,3.88
2022-11-15T16:36:34.310Z,5.90
2022-11-15T16:39:04.791Z,4.03
2022-11-15T16:41:34.260Z,8.25
2022-11-15T16:44:02.083Z,3.63
2022-11-15T16:46:30.169Z,4.18
2022-11-15T16:48:58.486Z,3.58
2022-11-15T16:51:26.448Z,2.78
2022-11-15T16:53:54.226Z,4.00
2022-11-15T16:56:26.767Z,3.10
2022-11-15T16:58:58.373Z,5.13
2022-11-15T17:01:28.874Z,3.30
2022-11-15T17:03:57.355Z,2.90
2022-11-15T17:06:26.839Z,3.87
2022-11-15T17:08:56.558Z,3.30
2022-11-15T17:11:24.317Z,2.55
2022-11-15T17:13:53.164Z,4.43
2022-11-15T17:16:22.286Z,3.03
2022-11-15T17:18:52.364Z,3.88
2022-11-15T17:21:22.674Z,3.25
2022-11-15T17:23:50.475Z,3.97
2022-11-15T17:26:29.271Z,3.50
2022-11-15T17:28:59.194Z,4.43
2022-11-15T17:31:30.637Z,3.78
2022-11-15T17:33:58.419Z,6.25
2022-11-15T17:36:26.149Z,5.70
2022-11-15T17:38:59.122Z,3.90
2022-11-15T17:41:27.961Z,3.42
2022-11-15T17:43:58.932Z,5.88
2022-11-15T17:46:29.392Z,6.80
2022-11-15T17:48:58.260Z,3.03
2022-11-15T17:51:26.647Z,4.57
2022-11-15T17:53:54.517Z,3.67
2022-11-15T17:56:23.855Z,4.80
2022-11-15T18:01:22.697Z,3.15
2022-11-15T18:03:52.400Z,5.47
2022-11-15T18:06:21.886Z,6.25
2022-11-15T18:08:51.688Z,6.05
2022-11-15T18:11:21.794Z,6.40
2022-11-15T18:13:52.506Z,5.13
2022-11-15T18:16:22.587Z,6.57
2022-11-15T18:18:51.898Z,4.95
2022-11-15T18:23:50.517Z,6.07
2022-11-15T18:26:23.040Z,4.18
2022-11-15T18:28:54.353Z,3.88
2022-11-15T18:31:24.235Z,5.72
2022-11-15T18:33:54.075Z,3.92
2022-11-15T18:36:23.919Z,3.97
2022-11-15T18:38:56.382Z,5.72
2022-11-15T18:41:28.275Z,5.70
2022-11-15T18:43:57.063Z,4.63
2022-11-15T18:46:26.208Z,3.95
2022-11-15T18:48:55.938Z,3.08
2022-11-15T18:51:25.721Z,5.00
2022-11-15T18:53:54.516Z,3.17
2022-11-15T18:56:23.244Z,5.30
2022-11-15T18:58:53.404Z,3.28
2022-11-15T19:01:22.713Z,4.28
2022-11-15T19:06:21.773Z,4.65
2022-11-15T19:08:52.991Z,4.35
2022-11-15T19:11:23.970Z,4.05
2022-11-15T19:13:55.382Z,4.53
2022-11-15T19:16:24.119Z,4.25
2022-11-15T19:18:54.444Z,4.35
2022-11-15T19:21:24.717Z,4.82
2022-11-15T19:23:54.132Z,3.72
2022-11-15T19:26:23.439Z,4.50
2022-11-15T19:31:20.738Z,6.40
2022-11-15T19:33:48.888Z,4.53
2022-11-15T19:36:19.401Z,3.58
2022-11-15T19:38:48.693Z,5.50
2022-11-15T19:43:47.842Z,5.18
2022-11-15T19:46:16.733Z,3.72
2022-11-15T19:48:44.816Z,4.45
2022-11-15T19:51:14.599Z,3.65
2022-11-15T19:53:43.401Z,3.92
2022-11-15T19:56:14.549Z,5.53
2022-11-15T19:58:42.788Z,3.42
2022-11-15T20:01:18.476Z,3.30
2022-11-15T20:03:47.993Z,3.78
2022-11-15T20:06:17.429Z,4.88
2022-11-15T20:08:45.965Z,5.10
2022-11-15T20:11:16.064Z,5.28
2022-11-15T20:13:44.292Z,2.03
2022-11-15T20:16:17.572Z,3.60
2022-11-15T20:18:45.493Z,3.85
2022-11-15T20:21:13.824Z,4.40
2022-11-15T20:23:42.046Z,2.13
2022-11-15T20:26:10.999Z,2.38
2022-11-15T20:28:41.139Z,2.92
2022-11-15T20:31:10.638Z,3.38
2022-11-15T20:33:38.734Z,2.33
2022-11-15T20:36:07.283Z,3.50
2022-11-15T20:38:35.469Z,2.95
2022-11-15T20:41:03.677Z,2.42
2022-11-15T20:43:31.435Z,3.38
2022-11-15T20:46:00.655Z,2.75
2022-11-15T20:48:28.452Z,3.22
2022-11-15T20:51:06.055Z,2.90
2022-11-15T20:53:33.860Z,2.55
2022-11-15T20:56:07.527Z,3.25
2022-11-15T20:58:36.077Z,2.70
2022-11-15T21:01:06.055Z,3.05
2022-11-15T21:03:34.424Z,3.38
2022-11-15T21:06:02.267Z,4.90
2022-11-15T21:08:50.730Z,2.75
2022-11-15T21:11:36.224Z,4.07
2022-11-15T21:14:09.083Z,2.80
2022-11-15T21:16:38.937Z,3.20
2022-11-15T21:21:35.200Z,4.35
2022-11-15T21:24:04.146Z,3.60
2022-11-15T21:26:32.103Z,2.78
2022-11-15T21:28:59.911Z,3.92
2022-11-15T21:31:27.973Z,3.72
2022-11-15T21:33:57.168Z,3.28
2022-11-15T21:36:25.467Z,5.60
2022-11-15T21:38:53.623Z,3.20
2022-11-15T21:41:21.447Z,3.58
2022-11-15T21:43:49.238Z,3.42
2022-11-15T21:46:17.442Z,3.08
2022-11-15T21:48:45.211Z,2.97
2022-11-15T21:51:14.367Z,2.65
2022-11-15T21:53:42.303Z,2.20
2022-11-15T21:56:11.883Z,2.90
2022-11-15T21:58:40.523Z,2.13
2022-11-15T22:01:26.504Z,4.97
2022-11-15T22:03:54.385Z,3.47
2022-11-15T22:06:24.443Z,3.20
2022-11-15T22:08:52.245Z,3.47
2022-11-15T22:11:20.041Z,4.03
2022-11-15T22:13:47.795Z,3.28
2022-11-15T22:16:15.574Z,5.05
2022-11-15T22:18:43.787Z,3.45
2022-11-15T22:21:13.291Z,4.20
2022-11-15T22:23:43.393Z,4.90
2022-11-15T22:26:13.404Z,2.97
2022-11-15T22:28:41.378Z,3.47
2022-11-15T22:31:10.056Z,3.60
2022-11-15T22:33:38.746Z,4.63
2022-11-15T22:36:07.625Z,2.78
2022-11-15T22:38:35.995Z,2.92
2022-11-15T22:41:06.033Z,3.58
2022-11-15T22:43:34.028Z,2.88
2022-11-15T22:46:02.886Z,5.55
2022-11-15T22:48:33.405Z,4.97
2022-11-15T22:51:01.965Z,3.15
2022-11-15T22:53:30.569Z,4.70
2022-11-15T22:56:00.042Z,4.07
2022-11-15T22:58:30.930Z,4.00
2022-11-15T23:01:01.325Z,5.32
2022-11-15T23:03:30.184Z,3.88
2022-11-15T23:06:02.973Z,4.32
2022-11-15T23:08:31.226Z,3.42
2022-11-15T23:11:18.227Z,4.38
2022-11-15T23:13:47.689Z,3.72
2022-11-15T23:16:25.750Z,6.15
2022-11-15T23:18:55.453Z,5.07
2022-11-15T23:21:43.833Z,7.53
2022-11-15T23:24:13.509Z,7.05
2022-11-15T23:26:42.595Z,4.70
2022-11-15T23:29:13.860Z,7.00
2022-11-15T23:32:02.596Z,5.47
2022-11-15T23:34:30.928Z,4.00
2022-11-15T23:36:59.268Z,4.70
2022-11-15T23:39:27.285Z,5.47
2022-11-15T23:41:55.374Z,4.95
2022-11-15T23:44:25.393Z,3.88
2022-11-15T23:46:53.808Z,6.22
2022-11-15T23:49:22.151Z,5.33
2022-11-15T23:51:50.244Z,6.28
2022-11-15T23:54:18.248Z,5.25
2022-11-15T23:56:46.191Z,4.68
2022-11-15T23:59:14.133Z,3.05
